sensor_id;sensor_type;location;lat;lon;timestamp;temperature;humidity
12225;DHT22;6175;50.956;11.064;2022-12-05T00:02:55;1.50;99.90
12225;DHT22;6175;50.956;11.064;2022-12-05T00:20:08;1.50;99.90
12225;DHT22;6175;50.956;11.064;2022-12-05T00:22:36;1.50;99.90
12225;DHT22;6175;50.956;11.064;2022-12-05T00:25:04;1.50;99.90
12225;DHT22;6175;50.956;11.064;2022-12-05T00:29:59;1.50;99.90
12225;DHT22;6175;50.956;11.064;2022-12-05T00:32:27;1.50;99.90
12225;DHT22;6175;50.956;11.064;2022-12-05T00:37:23;1.50;99.90
12225;DHT22;6175;50.956;11.064;2022-12-05T00:42:17;1.50;99.90
12225;DHT22;6175;50.956;11.064;2022-12-05T00:49:39;1.40;99.90
12225;DHT22;6175;50.956;11.064;2022-12-05T00:54:34;1.40;99.90
12225;DHT22;6175;50.956;11.064;2022-12-05T00:57:01;1.40;99.90
12225;DHT22;6175;50.956;11.064;2022-12-05T01:01:55;1.50;99.90
12225;DHT22;6175;50.956;11.064;2022-12-05T01:04:24;1.40;99.90
12225;DHT22;6175;50.956;11.064;2022-12-05T01:06:53;1.50;99.90
12225;DHT22;6175;50.956;11.064;2022-12-05T01:11:50;1.50;99.90
12225;DHT22;6175;50.956;11.064;2022-12-05T01:14:20;1.50;99.90
12225;DHT22;6175;50.956;11.064;2022-12-05T01:16:49;1.50;99.90
12225;DHT22;6175;50.956;11.064;2022-12-05T01:19:18;1.50;99.90
12225;DHT22;6175;50.956;11.064;2022-12-05T01:21:45;1.50;99.90
12225;DHT22;6175;50.956;11.064;2022-12-05T01:26:40;1.50;99.90
12225;DHT22;6175;50.956;11.064;2022-12-05T01:29:10;1.50;99.90
12225;DHT22;6175;50.956;11.064;2022-12-05T01:31:38;1.50;99.90
12225;DHT22;6175;50.956;11.064;2022-12-05T01:34:08;1.50;99.90
12225;DHT22;6175;50.956;11.064;2022-12-05T01:36:35;1.50;99.90
12225;DHT22;6175;50.956;11.064;2022-12-05T01:41:33;1.40;99.90
12225;DHT22;6175;50.956;11.064;2022-12-05T01:44:03;1.40;99.90
12225;DHT22;6175;50.956;11.064;2022-12-05T01:46:34;1.50;99.90
12225;DHT22;6175;50.956;11.064;2022-12-05T01:49:05;1.40;99.90
12225;DHT22;6175;50.956;11.064;2022-12-05T01:51:35;1.50;99.90
12225;DHT22;6175;50.956;11.064;2022-12-05T01:54:04;1.50;99.90
12225;DHT22;6175;50.956;11.064;2022-12-05T01:59:00;1.50;99.90
12225;DHT22;6175;50.956;11.064;2022-12-05T02:03:57;1.40;99.90
12225;DHT22;6175;50.956;11.064;2022-12-05T02:06:26;1.50;99.90
12225;DHT22;6175;50.956;11.064;2022-12-05T02:11:21;1.50;99.90
12225;DHT22;6175;50.956;11.064;2022-12-05T02:16:47;1.50;99.90
12225;DHT22;6175;50.956;11.064;2022-12-05T02:19:53;1.70;99.90
12225;DHT22;6175;50.956;11.064;2022-12-05T02:22:42;1.50;99.90
12225;DHT22;6175;50.956;11.064;2022-12-05T02:25:33;1.50;99.90
12225;DHT22;6175;50.956;11.064;2022-12-05T02:28:20;1.50;99.90
12225;DHT22;6175;50.956;11.064;2022-12-05T02:30:54;1.50;99.90
12225;DHT22;6175;50.956;11.064;2022-12-05T02:33:29;1.50;99.90
12225;DHT22;6175;50.956;11.064;2022-12-05T02:36:03;1.50;99.90
12225;DHT22;6175;50.956;11.064;2022-12-05T02:38:35;1.40;99.90
12225;DHT22;6175;50.956;11.064;2022-12-05T02:41:12;1.40;99.90
12225;DHT22;6175;50.956;11.064;2022-12-05T02:43:43;1.40;99.90
12225;DHT22;6175;50.956;11.064;2022-12-05T02:46:16;1.40;99.90
12225;DHT22;6175;50.956;11.064;2022-12-05T02:48:45;1.40;99.90
12225;DHT22;6175;50.956;11.064;2022-12-05T02:51:21;1.40;99.90
12225;DHT22;6175;50.956;11.064;2022-12-05T02:53:50;1.50;99.90
12225;DHT22;6175;50.956;11.064;2022-12-05T02:58:50;1.40;99.90
12225;DHT22;6175;50.956;11.064;2022-12-05T03:01:21;1.50;99.90
12225;DHT22;6175;50.956;11.064;2022-12-05T03:03:49;1.40;99.90
12225;DHT22;6175;50.956;11.064;2022-12-05T03:06:19;1.50;99.90
12225;DHT22;6175;50.956;11.064;2022-12-05T03:08:49;1.50;99.90
12225;DHT22;6175;50.956;11.064;2022-12-05T03:11:17;1.50;99.90
12225;DHT22;6175;50.956;11.064;2022-12-05T03:13:47;1.50;99.90
12225;DHT22;6175;50.956;11.064;2022-12-05T03:16:19;1.40;99.90
12225;DHT22;6175;50.956;11.064;2022-12-05T03:18:50;1.40;99.90
12225;DHT22;6175;50.956;11.064;2022-12-05T03:21:24;1.40;99.90
12225;DHT22;6175;50.956;11.064;2022-12-05T03:23:58;1.40;99.90
12225;DHT22;6175;50.956;11.064;2022-12-05T03:26:35;1.40;99.90
12225;DHT22;6175;50.956;11.064;2022-12-05T03:29:15;1.30;99.90
12225;DHT22;6175;50.956;11.064;2022-12-05T03:31:51;1.40;99.90
12225;DHT22;6175;50.956;11.064;2022-12-05T03:34:28;1.40;99.90
12225;DHT22;6175;50.956;11.064;2022-12-05T03:37:01;1.50;99.90
12225;DHT22;6175;50.956;11.064;2022-12-05T03:39:33;1.40;99.90
12225;DHT22;6175;50.956;11.064;2022-12-05T03:42:06;1.40;99.90
12225;DHT22;6175;50.956;11.064;2022-12-05T03:44:43;1.40;99.90
12225;DHT22;6175;50.956;11.064;2022-12-05T03:47:14;1.40;99.90
12225;DHT22;6175;50.956;11.064;2022-12-05T03:49:47;1.40;99.90
12225;DHT22;6175;50.956;11.064;2022-12-05T03:52:21;1.30;99.90
12225;DHT22;6175;50.956;11.064;2022-12-05T03:54:50;1.40;99.90
12225;DHT22;6175;50.956;11.064;2022-12-05T03:57:21;1.40;99.90
12225;DHT22;6175;50.956;11.064;2022-12-05T03:59:56;1.40;99.90
12225;DHT22;6175;50.956;11.064;2022-12-05T04:02:29;1.40;99.90
12225;DHT22;6175;50.956;11.064;2022-12-05T04:05:01;1.40;99.90
12225;DHT22;6175;50.956;11.064;2022-12-05T04:07:30;1.30;99.90
12225;DHT22;6175;50.956;11.064;2022-12-05T04:10:03;1.40;99.90
12225;DHT22;6175;50.956;11.064;2022-12-05T04:12:34;1.40;99.90
12225;DHT22;6175;50.956;11.064;2022-12-05T04:15:06;1.30;99.90
12225;DHT22;6175;50.956;11.064;2022-12-05T04:17:38;1.40;99.90
12225;DHT22;6175;50.956;11.064;2022-12-05T04:20:11;1.40;99.90
12225;DHT22;6175;50.956;11.064;2022-12-05T04:25:25;1.50;99.90
12225;DHT22;6175;50.956;11.064;2022-12-05T04:28:08;1.50;99.90
12225;DHT22;6175;50.956;11.064;2022-12-05T04:30:38;1.50;99.90
12225;DHT22;6175;50.956;11.064;2022-12-05T04:33:09;1.50;99.90
12225;DHT22;6175;50.956;11.064;2022-12-05T04:35:42;1.50;99.90
12225;DHT22;6175;50.956;11.064;2022-12-05T04:38:15;1.50;99.90
12225;DHT22;6175;50.956;11.064;2022-12-05T04:40:50;1.50;99.90
12225;DHT22;6175;50.956;11.064;2022-12-05T04:43:18;1.50;99.90
12225;DHT22;6175;50.956;11.064;2022-12-05T04:45:47;1.50;99.90
12225;DHT22;6175;50.956;11.064;2022-12-05T04:48:16;1.60;99.90
12225;DHT22;6175;50.956;11.064;2022-12-05T04:50:47;1.50;99.90
12225;DHT22;6175;50.956;11.064;2022-12-05T04:53:15;5.10;99.90
12225;DHT22;6175;50.956;11.064;2022-12-05T04:55:46;1.50;99.90
12225;DHT22;6175;50.956;11.064;2022-12-05T04:58:21;1.50;99.90
12225;DHT22;6175;50.956;11.064;2022-12-05T05:00:53;1.50;99.90
12225;DHT22;6175;50.956;11.064;2022-12-05T05:03:25;1.50;99.90
12225;DHT22;6175;50.956;11.064;2022-12-05T05:05:55;1.50;99.90
12225;DHT22;6175;50.956;11.064;2022-12-05T05:08:24;1.50;99.90
12225;DHT22;6175;50.956;11.064;2022-12-05T05:11:00;1.50;99.90
12225;DHT22;6175;50.956;11.064;2022-12-05T05:23:20;1.60;99.90
12225;DHT22;6175;50.956;11.064;2022-12-05T05:25:51;1.50;99.90
12225;DHT22;6175;50.956;11.064;2022-12-05T05:33:12;1.50;99.90
12225;DHT22;6175;50.956;11.064;2022-12-05T05:38:06;1.50;99.90
12225;DHT22;6175;50.956;11.064;2022-12-05T05:40:35;1.60;99.90
12225;DHT22;6175;50.956;11.064;2022-12-05T05:43:03;1.60;99.90
12225;DHT22;6175;50.956;11.064;2022-12-05T05:52:51;1.60;99.90
12225;DHT22;6175;50.956;11.064;2022-12-05T05:57:47;1.50;99.90
12225;DHT22;6175;50.956;11.064;2022-12-05T06:00:14;1.50;99.90
12225;DHT22;6175;50.956;11.064;2022-12-05T06:05:08;1.60;99.90
12225;DHT22;6175;50.956;11.064;2022-12-05T06:10:04;1.60;99.90
12225;DHT22;6175;50.956;11.064;2022-12-05T06:12:31;1.60;99.90
12225;DHT22;6175;50.956;11.064;2022-12-05T06:14:59;1.60;99.90
12225;DHT22;6175;50.956;11.064;2022-12-05T06:24:47;1.60;99.90
12225;DHT22;6175;50.956;11.064;2022-12-05T06:29:41;1.60;99.90
12225;DHT22;6175;50.956;11.064;2022-12-05T06:32:10;1.60;99.90
12225;DHT22;6175;50.956;11.064;2022-12-05T06:37:04;1.50;99.90
12225;DHT22;6175;50.956;11.064;2022-12-05T06:39:31;1.50;99.90
12225;DHT22;6175;50.956;11.064;2022-12-05T06:46:54;1.50;99.90
12225;DHT22;6175;50.956;11.064;2022-12-05T06:49:23;1.60;99.90
12225;DHT22;6175;50.956;11.064;2022-12-05T07:04:10;1.60;99.90
12225;DHT22;6175;50.956;11.064;2022-12-05T07:06:40;1.60;99.90
12225;DHT22;6175;50.956;11.064;2022-12-05T07:09:09;1.60;99.90
12225;DHT22;6175;50.956;11.064;2022-12-05T07:11:37;1.60;99.90
12225;DHT22;6175;50.956;11.064;2022-12-05T07:23:55;1.50;99.90
12225;DHT22;6175;50.956;11.064;2022-12-05T07:26:23;1.70;99.90
12225;DHT22;6175;50.956;11.064;2022-12-05T07:28:51;1.70;99.90
12225;DHT22;6175;50.956;11.064;2022-12-05T07:31:19;1.70;99.90
12225;DHT22;6175;50.956;11.064;2022-12-05T07:33:47;5.20;99.90
12225;DHT22;6175;50.956;11.064;2022-12-05T07:36:16;1.60;99.90
12225;DHT22;6175;50.956;11.064;2022-12-05T07:38:44;1.60;99.90
12225;DHT22;6175;50.956;11.064;2022-12-05T07:41:14;1.70;99.90
12225;DHT22;6175;50.956;11.064;2022-12-05T07:46:10;1.70;99.90
12225;DHT22;6175;50.956;11.064;2022-12-05T07:48:38;1.70;99.90
12225;DHT22;6175;50.956;11.064;2022-12-05T07:51:06;1.70;99.90
12225;DHT22;6175;50.956;11.064;2022-12-05T07:53:35;1.80;99.90
12225;DHT22;6175;50.956;11.064;2022-12-05T07:56:04;1.80;99.90
12225;DHT22;6175;50.956;11.064;2022-12-05T07:58:34;1.80;99.90
12225;DHT22;6175;50.956;11.064;2022-12-05T08:01:06;1.80;99.90
12225;DHT22;6175;50.956;11.064;2022-12-05T08:08:29;1.80;99.90
12225;DHT22;6175;50.956;11.064;2022-12-05T08:15:52;1.70;99.90
12225;DHT22;6175;50.956;11.064;2022-12-05T08:28:07;1.90;99.90
12225;DHT22;6175;50.956;11.064;2022-12-05T08:33:03;2.00;99.90
12225;DHT22;6175;50.956;11.064;2022-12-05T08:45:19;2.10;99.90
12225;DHT22;6175;50.956;11.064;2022-12-05T08:47:45;2.10;99.90
12225;DHT22;6175;50.956;11.064;2022-12-05T08:50:14;2.00;99.90
12225;DHT22;6175;50.956;11.064;2022-12-05T08:55:08;2.10;99.90
12225;DHT22;6175;50.956;11.064;2022-12-05T09:00:03;2.10;99.90
12225;DHT22;6175;50.956;11.064;2022-12-05T09:07:27;2.20;99.90
12225;DHT22;6175;50.956;11.064;2022-12-05T09:14:48;2.20;99.90
12225;DHT22;6175;50.956;11.064;2022-12-05T09:24:39;2.30;99.90
12225;DHT22;6175;50.956;11.064;2022-12-05T09:27:05;2.10;99.90
12225;DHT22;6175;50.956;11.064;2022-12-05T09:29:33;2.20;99.90
12225;DHT22;6175;50.956;11.064;2022-12-05T09:36:54;2.30;99.90
12225;DHT22;6175;50.956;11.064;2022-12-05T09:39:22;2.20;99.90
12225;DHT22;6175;50.956;11.064;2022-12-05T09:42:08;2.20;99.90
12225;DHT22;6175;50.956;11.064;2022-12-05T09:44:45;5.40;99.90
12225;DHT22;6175;50.956;11.064;2022-12-05T09:47:23;2.30;99.90
12225;DHT22;6175;50.956;11.064;2022-12-05T09:49:57;2.30;99.90
12225;DHT22;6175;50.956;11.064;2022-12-05T09:52:28;2.30;99.90
12225;DHT22;6175;50.956;11.064;2022-12-05T09:54:57;2.30;99.90
12225;DHT22;6175;50.956;11.064;2022-12-05T09:57:34;2.10;99.90
12225;DHT22;6175;50.956;11.064;2022-12-05T10:00:06;2.30;99.90
12225;DHT22;6175;50.956;11.064;2022-12-05T10:02:44;2.30;99.90
12225;DHT22;6175;50.956;11.064;2022-12-05T10:05:17;3.10;99.90
12225;DHT22;6175;50.956;11.064;2022-12-05T10:07:52;2.30;99.90
12225;DHT22;6175;50.956;11.064;2022-12-05T10:10:29;2.30;99.90
12225;DHT22;6175;50.956;11.064;2022-12-05T10:13:12;2.40;99.90
12225;DHT22;6175;50.956;11.064;2022-12-05T10:15:44;2.30;99.90
12225;DHT22;6175;50.956;11.064;2022-12-05T10:18:21;2.40;99.90
12225;DHT22;6175;50.956;11.064;2022-12-05T10:20:55;2.40;99.90
12225;DHT22;6175;50.956;11.064;2022-12-05T10:23:28;2.40;99.90
12225;DHT22;6175;50.956;11.064;2022-12-05T10:25:57;2.40;99.90
12225;DHT22;6175;50.956;11.064;2022-12-05T10:28:30;2.30;99.90
12225;DHT22;6175;50.956;11.064;2022-12-05T10:31:01;2.30;99.90
12225;DHT22;6175;50.956;11.064;2022-12-05T10:33:35;2.40;99.90
12225;DHT22;6175;50.956;11.064;2022-12-05T10:36:08;2.40;99.90
12225;DHT22;6175;50.956;11.064;2022-12-05T10:38:35;2.30;99.90
12225;DHT22;6175;50.956;11.064;2022-12-05T10:41:05;3.10;99.90
12225;DHT22;6175;50.956;11.064;2022-12-05T10:43:37;2.30;99.90
12225;DHT22;6175;50.956;11.064;2022-12-05T10:48:35;2.30;99.90
12225;DHT22;6175;50.956;11.064;2022-12-05T10:51:03;2.30;99.90
12225;DHT22;6175;50.956;11.064;2022-12-05T10:53:37;2.40;99.90
12225;DHT22;6175;50.956;11.064;2022-12-05T10:56:39;2.50;99.90
12225;DHT22;6175;50.956;11.064;2022-12-05T10:59:09;2.60;99.90
12225;DHT22;6175;50.956;11.064;2022-12-05T11:01:37;2.60;99.90
12225;DHT22;6175;50.956;11.064;2022-12-05T11:04:19;2.70;99.90
12225;DHT22;6175;50.956;11.064;2022-12-05T11:06:52;2.60;99.90
12225;DHT22;6175;50.956;11.064;2022-12-05T11:09:22;2.70;99.90
12225;DHT22;6175;50.956;11.064;2022-12-05T11:12:17;2.70;99.90
12225;DHT22;6175;50.956;11.064;2022-12-05T11:15:20;2.70;99.90
12225;DHT22;6175;50.956;11.064;2022-12-05T11:17:50;2.80;99.90
12225;DHT22;6175;50.956;11.064;2022-12-05T11:20:38;2.80;99.90
12225;DHT22;6175;50.956;11.064;2022-12-05T11:23:26;2.80;99.90
12225;DHT22;6175;50.956;11.064;2022-12-05T11:25:54;2.80;99.90
12225;DHT22;6175;50.956;11.064;2022-12-05T11:28:33;2.90;99.90
12225;DHT22;6175;50.956;11.064;2022-12-05T11:31:04;2.80;99.90
12225;DHT22;6175;50.956;11.064;2022-12-05T11:33:34;5.90;99.90
12225;DHT22;6175;50.956;11.064;2022-12-05T11:36:11;3.00;99.90
12225;DHT22;6175;50.956;11.064;2022-12-05T11:38:40;3.10;99.90
12225;DHT22;6175;50.956;11.064;2022-12-05T11:41:27;3.10;99.90
12225;DHT22;6175;50.956;11.064;2022-12-05T11:44:21;3.10;99.90
12225;DHT22;6175;50.956;11.064;2022-12-05T11:46:58;3.20;99.90
12225;DHT22;6175;50.956;11.064;2022-12-05T11:49:42;3.20;99.90
12225;DHT22;6175;50.956;11.064;2022-12-05T11:52:17;3.30;99.90
12225;DHT22;6175;50.956;11.064;2022-12-05T11:54:55;3.30;99.90
12225;DHT22;6175;50.956;11.064;2022-12-05T11:57:38;3.30;99.90
12225;DHT22;6175;50.956;11.064;2022-12-05T12:00:17;3.30;99.90
12225;DHT22;6175;50.956;11.064;2022-12-05T12:03:08;3.30;99.90
12225;DHT22;6175;50.956;11.064;2022-12-05T12:05:39;3.40;99.90
12225;DHT22;6175;50.956;11.064;2022-12-05T12:08:18;3.40;99.90
12225;DHT22;6175;50.956;11.064;2022-12-05T12:10:53;3.40;99.90
12225;DHT22;6175;50.956;11.064;2022-12-05T12:13:33;3.40;99.90
12225;DHT22;6175;50.956;11.064;2022-12-05T12:16:08;3.40;99.90
12225;DHT22;6175;50.956;11.064;2022-12-05T12:21:57;3.20;99.90
12225;DHT22;6175;50.956;11.064;2022-12-05T12:24:38;3.30;99.90
12225;DHT22;6175;50.956;11.064;2022-12-05T12:27:14;3.30;99.90
12225;DHT22;6175;50.956;11.064;2022-12-05T12:29:57;3.30;99.90
12225;DHT22;6175;50.956;11.064;2022-12-05T12:32:33;3.30;99.90
12225;DHT22;6175;50.956;11.064;2022-12-05T12:35:25;3.30;99.90
12225;DHT22;6175;50.956;11.064;2022-12-05T12:38:11;3.30;99.90
12225;DHT22;6175;50.956;11.064;2022-12-05T12:40:46;3.30;99.90
12225;DHT22;6175;50.956;11.064;2022-12-05T12:43:30;3.30;99.90
12225;DHT22;6175;50.956;11.064;2022-12-05T12:46:18;3.30;99.90
12225;DHT22;6175;50.956;11.064;2022-12-05T12:49:02;3.20;99.90
12225;DHT22;6175;50.956;11.064;2022-12-05T12:54:35;3.20;99.90
12225;DHT22;6175;50.956;11.064;2022-12-05T12:57:07;3.20;99.90
12225;DHT22;6175;50.956;11.064;2022-12-05T12:59:48;3.10;99.90
12225;DHT22;6175;50.956;11.064;2022-12-05T13:02:21;3.10;99.90
12225;DHT22;6175;50.956;11.064;2022-12-05T13:04:54;3.10;99.90
12225;DHT22;6175;50.956;11.064;2022-12-05T13:07:27;3.10;99.90
12225;DHT22;6175;50.956;11.064;2022-12-05T13:10:00;3.00;99.90
12225;DHT22;6175;50.956;11.064;2022-12-05T13:12:30;3.10;99.90
12225;DHT22;6175;50.956;11.064;2022-12-05T13:15:04;3.10;99.90
12225;DHT22;6175;50.956;11.064;2022-12-05T13:17:32;3.00;99.90
12225;DHT22;6175;50.956;11.064;2022-12-05T13:20:00;3.00;99.90
12225;DHT22;6175;50.956;11.064;2022-12-05T13:22:28;2.20;99.90
12225;DHT22;6175;50.956;11.064;2022-12-05T13:24:57;2.90;99.90
12225;DHT22;6175;50.956;11.064;2022-12-05T13:27:25;3.00;99.90
12225;DHT22;6175;50.956;11.064;2022-12-05T13:29:54;3.00;99.90
12225;DHT22;6175;50.956;11.064;2022-12-05T13:32:26;3.00;99.90
12225;DHT22;6175;50.956;11.064;2022-12-05T13:34:54;3.00;99.90
12225;DHT22;6175;50.956;11.064;2022-12-05T13:37:24;3.00;99.90
12225;DHT22;6175;50.956;11.064;2022-12-05T13:40:26;3.00;99.90
12225;DHT22;6175;50.956;11.064;2022-12-05T13:43:13;3.10;99.90
12225;DHT22;6175;50.956;11.064;2022-12-05T13:45:42;3.10;99.90
12225;DHT22;6175;50.956;11.064;2022-12-05T13:48:22;2.90;99.90
12225;DHT22;6175;50.956;11.064;2022-12-05T13:50:54;3.10;99.90
12225;DHT22;6175;50.956;11.064;2022-12-05T13:53:30;3.10;99.90
12225;DHT22;6175;50.956;11.064;2022-12-05T13:56:01;3.10;99.90
12225;DHT22;6175;50.956;11.064;2022-12-05T13:58:47;3.10;99.90
12225;DHT22;6175;50.956;11.064;2022-12-05T14:01:47;3.10;99.90
12225;DHT22;6175;50.956;11.064;2022-12-05T14:07:36;3.00;99.90
12225;DHT22;6175;50.956;11.064;2022-12-05T14:10:05;3.00;99.90
12225;DHT22;6175;50.956;11.064;2022-12-05T14:12:53;3.00;99.90
12225;DHT22;6175;50.956;11.064;2022-12-05T14:15:38;3.00;99.90
12225;DHT22;6175;50.956;11.064;2022-12-05T14:18:13;3.00;99.90
12225;DHT22;6175;50.956;11.064;2022-12-05T14:21:09;3.00;99.90
12225;DHT22;6175;50.956;11.064;2022-12-05T14:23:52;3.00;99.90
12225;DHT22;6175;50.956;11.064;2022-12-05T14:26:38;3.00;99.90
12225;DHT22;6175;50.956;11.064;2022-12-05T14:29:19;2.90;99.90
12225;DHT22;6175;50.956;11.064;2022-12-05T14:32:00;2.90;99.90
12225;DHT22;6175;50.956;11.064;2022-12-05T14:34:34;2.90;99.90
12225;DHT22;6175;50.956;11.064;2022-12-05T14:37:05;5.80;99.90
12225;DHT22;6175;50.956;11.064;2022-12-05T14:39:38;2.90;99.90
12225;DHT22;6175;50.956;11.064;2022-12-05T14:42:19;2.80;99.90
12225;DHT22;6175;50.956;11.064;2022-12-05T14:44:49;2.90;99.90
12225;DHT22;6175;50.956;11.064;2022-12-05T14:47:19;2.90;99.90
12225;DHT22;6175;50.956;11.064;2022-12-05T14:49:57;2.80;99.90
12225;DHT22;6175;50.956;11.064;2022-12-05T14:52:27;2.90;99.90
12225;DHT22;6175;50.956;11.064;2022-12-05T14:55:00;2.80;99.90
12225;DHT22;6175;50.956;11.064;2022-12-05T14:57:28;2.80;99.90
12225;DHT22;6175;50.956;11.064;2022-12-05T14:59:59;2.90;99.90
12225;DHT22;6175;50.956;11.064;2022-12-05T15:02:30;3.30;99.90
12225;DHT22;6175;50.956;11.064;2022-12-05T15:05:01;2.90;99.90
12225;DHT22;6175;50.956;11.064;2022-12-05T15:07:32;2.90;99.90
12225;DHT22;6175;50.956;11.064;2022-12-05T15:10:03;2.80;99.90
12225;DHT22;6175;50.956;11.064;2022-12-05T15:12:37;2.80;99.90
12225;DHT22;6175;50.956;11.064;2022-12-05T15:15:23;2.70;99.90
12225;DHT22;6175;50.956;11.064;2022-12-05T15:17:54;2.70;99.90
12225;DHT22;6175;50.956;11.064;2022-12-05T15:20:32;2.70;99.90
12225;DHT22;6175;50.956;11.064;2022-12-05T15:25:31;2.70;99.90
12225;DHT22;6175;50.956;11.064;2022-12-05T15:28:01;2.70;99.90
12225;DHT22;6175;50.956;11.064;2022-12-05T15:30:32;2.70;99.90
12225;DHT22;6175;50.956;11.064;2022-12-05T15:35:31;2.60;99.90
12225;DHT22;6175;50.956;11.064;2022-12-05T15:38:03;2.60;99.90
12225;DHT22;6175;50.956;11.064;2022-12-05T15:40:36;2.60;99.90
12225;DHT22;6175;50.956;11.064;2022-12-05T15:43:26;2.60;99.90
12225;DHT22;6175;50.956;11.064;2022-12-05T15:46:19;2.50;99.90
12225;DHT22;6175;50.956;11.064;2022-12-05T15:51:16;2.60;99.90
12225;DHT22;6175;50.956;11.064;2022-12-05T15:53:45;2.60;99.90
12225;DHT22;6175;50.956;11.064;2022-12-05T15:56:16;2.50;99.90
12225;DHT22;6175;50.956;11.064;2022-12-05T15:58:48;1.20;99.90
12225;DHT22;6175;50.956;11.064;2022-12-05T16:01:19;2.60;99.90
12225;DHT22;6175;50.956;11.064;2022-12-05T16:03:52;2.60;99.90
12225;DHT22;6175;50.956;11.064;2022-12-05T16:06:23;2.70;99.90
12225;DHT22;6175;50.956;11.064;2022-12-05T16:08:52;3.50;99.90
12225;DHT22;6175;50.956;11.064;2022-12-05T16:11:19;2.70;99.90
12225;DHT22;6175;50.956;11.064;2022-12-05T16:13:48;2.70;99.90
12225;DHT22;6175;50.956;11.064;2022-12-05T16:16:20;2.70;99.90
12225;DHT22;6175;50.956;11.064;2022-12-05T16:18:48;2.70;99.90
12225;DHT22;6175;50.956;11.064;2022-12-05T16:21:33;2.60;99.90
12225;DHT22;6175;50.956;11.064;2022-12-05T16:24:05;2.60;99.90
12225;DHT22;6175;50.956;11.064;2022-12-05T16:26:36;2.60;99.90
12225;DHT22;6175;50.956;11.064;2022-12-05T16:31:35;2.60;99.90
12225;DHT22;6175;50.956;11.064;2022-12-05T16:34:05;2.60;99.90
12225;DHT22;6175;50.956;11.064;2022-12-05T16:36:33;2.60;99.90
12225;DHT22;6175;50.956;11.064;2022-12-05T16:39:03;2.60;99.90
12225;DHT22;6175;50.956;11.064;2022-12-05T16:41:34;2.50;99.90
12225;DHT22;6175;50.956;11.064;2022-12-05T16:46:46;2.50;99.90
12225;DHT22;6175;50.956;11.064;2022-12-05T16:49:18;2.50;99.90
12225;DHT22;6175;50.956;11.064;2022-12-05T16:51:53;2.50;99.90
12225;DHT22;6175;50.956;11.064;2022-12-05T16:59:21;2.40;99.90
12225;DHT22;6175;50.956;11.064;2022-12-05T17:01:50;2.40;99.90
12225;DHT22;6175;50.956;11.064;2022-12-05T17:06:44;2.40;99.90
12225;DHT22;6175;50.956;11.064;2022-12-05T17:11:41;2.30;99.90
12225;DHT22;6175;50.956;11.064;2022-12-05T17:14:12;2.30;99.90
12225;DHT22;6175;50.956;11.064;2022-12-05T17:19:08;2.40;99.90
12225;DHT22;6175;50.956;11.064;2022-12-05T17:21:36;2.40;99.90
12225;DHT22;6175;50.956;11.064;2022-12-05T17:24:04;2.40;99.90
12225;DHT22;6175;50.956;11.064;2022-12-05T17:26:31;2.40;99.90
12225;DHT22;6175;50.956;11.064;2022-12-05T17:36:21;2.30;99.90
12225;DHT22;6175;50.956;11.064;2022-12-05T17:38:49;2.30;99.90
12225;DHT22;6175;50.956;11.064;2022-12-05T17:41:17;2.30;99.90
12225;DHT22;6175;50.956;11.064;2022-12-05T17:43:45;2.20;99.90
12225;DHT22;6175;50.956;11.064;2022-12-05T17:46:14;2.30;99.90
12225;DHT22;6175;50.956;11.064;2022-12-05T17:51:09;2.40;99.90
12225;DHT22;6175;50.956;11.064;2022-12-05T17:53:40;2.40;99.90
12225;DHT22;6175;50.956;11.064;2022-12-05T17:56:09;2.20;99.90
12225;DHT22;6175;50.956;11.064;2022-12-05T18:08:26;2.30;99.90
12225;DHT22;6175;50.956;11.064;2022-12-05T18:10:54;2.50;99.90
12225;DHT22;6175;50.956;11.064;2022-12-05T18:15:55;2.30;99.90
12225;DHT22;6175;50.956;11.064;2022-12-05T18:25:56;2.40;99.90
12225;DHT22;6175;50.956;11.064;2022-12-05T18:31:03;2.40;99.90
12225;DHT22;6175;50.956;11.064;2022-12-05T18:36:03;2.40;99.90
12225;DHT22;6175;50.956;11.064;2022-12-05T18:38:30;2.40;99.90
12225;DHT22;6175;50.956;11.064;2022-12-05T18:40:59;2.40;99.90
12225;DHT22;6175;50.956;11.064;2022-12-05T18:45:54;2.40;99.90
12225;DHT22;6175;50.956;11.064;2022-12-05T18:50:49;2.50;99.90
12225;DHT22;6175;50.956;11.064;2022-12-05T18:53:17;2.50;99.90
12225;DHT22;6175;50.956;11.064;2022-12-05T18:58:13;3.80;99.90
12225;DHT22;6175;50.956;11.064;2022-12-05T19:15:25;2.40;99.90
12225;DHT22;6175;50.956;11.064;2022-12-05T19:17:52;2.30;99.90
12225;DHT22;6175;50.956;11.064;2022-12-05T19:20:19;2.30;99.90
12225;DHT22;6175;50.956;11.064;2022-12-05T19:30:08;3.80;99.90
12225;DHT22;6175;50.956;11.064;2022-12-05T19:32:36;2.20;99.90
12225;DHT22;6175;50.956;11.064;2022-12-05T19:35:04;2.20;99.90
12225;DHT22;6175;50.956;11.064;2022-12-05T19:49:51;2.20;99.90
12225;DHT22;6175;50.956;11.064;2022-12-05T19:52:18;2.20;99.90
12225;DHT22;6175;50.956;11.064;2022-12-05T19:54:45;2.30;99.90
12225;DHT22;6175;50.956;11.064;2022-12-05T20:04:33;2.30;99.90
12225;DHT22;6175;50.956;11.064;2022-12-05T20:07:02;2.30;99.90
12225;DHT22;6175;50.956;11.064;2022-12-05T20:09:29;2.20;99.90
12225;DHT22;6175;50.956;11.064;2022-12-05T20:14:24;2.30;99.90
12225;DHT22;6175;50.956;11.064;2022-12-05T20:19:18;2.20;99.90
12225;DHT22;6175;50.956;11.064;2022-12-05T20:24:14;2.20;99.90
12225;DHT22;6175;50.956;11.064;2022-12-05T20:26:43;2.10;99.90
12225;DHT22;6175;50.956;11.064;2022-12-05T20:31:39;2.20;99.90
12225;DHT22;6175;50.956;11.064;2022-12-05T20:36:34;2.10;99.90
12225;DHT22;6175;50.956;11.064;2022-12-05T20:39:03;2.20;99.90
12225;DHT22;6175;50.956;11.064;2022-12-05T20:41:32;2.20;99.90
12225;DHT22;6175;50.956;11.064;2022-12-05T20:44:01;2.20;99.90
12225;DHT22;6175;50.956;11.064;2022-12-05T20:46:29;2.20;99.90
12225;DHT22;6175;50.956;11.064;2022-12-05T20:51:26;2.20;99.90
12225;DHT22;6175;50.956;11.064;2022-12-05T20:56:22;2.20;99.90
12225;DHT22;6175;50.956;11.064;2022-12-05T20:58:53;2.20;99.90
12225;DHT22;6175;50.956;11.064;2022-12-05T21:01:22;2.20;99.90
12225;DHT22;6175;50.956;11.064;2022-12-05T21:03:50;2.20;99.90
12225;DHT22;6175;50.956;11.064;2022-12-05T21:06:19;2.20;99.90
12225;DHT22;6175;50.956;11.064;2022-12-05T21:13:42;2.10;99.90
12225;DHT22;6175;50.956;11.064;2022-12-05T21:16:12;2.30;99.90
12225;DHT22;6175;50.956;11.064;2022-12-05T21:21:11;2.20;99.90
12225;DHT22;6175;50.956;11.064;2022-12-05T21:26:10;2.20;99.90
12225;DHT22;6175;50.956;11.064;2022-12-05T21:28:38;2.20;99.90
12225;DHT22;6175;50.956;11.064;2022-12-05T21:31:07;2.20;99.90
12225;DHT22;6175;50.956;11.064;2022-12-05T21:33:36;2.20;99.90
12225;DHT22;6175;50.956;11.064;2022-12-05T21:36:03;3.20;99.90
12225;DHT22;6175;50.956;11.064;2022-12-05T21:38:30;2.30;99.90
12225;DHT22;6175;50.956;11.064;2022-12-05T21:45:52;2.20;99.90
12225;DHT22;6175;50.956;11.064;2022-12-05T21:48:21;2.30;99.90
12225;DHT22;6175;50.956;11.064;2022-12-05T21:50:50;2.30;99.90
12225;DHT22;6175;50.956;11.064;2022-12-05T21:53:17;2.30;99.90
12225;DHT22;6175;50.956;11.064;2022-12-05T21:55:44;2.40;99.90
12225;DHT22;6175;50.956;11.064;2022-12-05T21:58:12;2.30;99.90